Time;durP1;ratioP1;P1;durP2;ratioP2;P2;SDS_P1;SDS_P2;PMS_P1;PMS_P2;Temp;Humidity;BMP_temperature;BMP_pressure;BME280_temperature;BME280_humidity;BME280_pressure;Samples;Min_cycle;Max_cycle;Signal;HPM_P1;HPM_P2
2021/05/07 00:01:40;;;;;;;94.82;48.55;;;5.70;99.90;;;;;;5029060;28;20045;-74
2021/05/07 00:04:07;;;;;;;92.65;50.05;;;5.70;99.90;;;;;;5029744;28;20044;-74
2021/05/07 00:06:34;;;;;;;96.63;50.72;;;5.70;99.90;;;;;;5013080;28;20045;-75
2021/05/07 00:09:04;;;;;;;99.55;50.58;;;5.70;99.90;;;;;;5046339;28;20045;-74
2021/05/07 00:11:33;;;;;;;99.22;51.17;;;5.70;99.90;;;;;;5063220;28;20112;-74
2021/05/07 00:14:00;;;;;;;103.72;52.67;;;5.60;99.90;;;;;;5045587;28;20141;-74
2021/05/07 00:16:27;;;;;;;105.65;50.35;;;5.60;99.90;;;;;;5012494;28;20527;-74
2021/05/07 00:18:54;;;;;;;105.07;50.75;;;5.60;99.90;;;;;;5062843;28;20048;-74
2021/05/07 00:21:32;;;;;;;103.60;51.72;;;5.50;99.90;;;;;;5030651;28;20056;-74
2021/05/07 00:23:59;;;;;;;110.57;52.53;;;5.50;99.90;;;;;;5049508;28;20489;-74
2021/05/07 00:26:25;;;;;;;105.20;53.35;;;5.50;99.90;;;;;;5015491;28;20136;-74
2021/05/07 00:28:51;;;;;;;111.78;53.40;;;5.50;99.90;;;;;;5049834;28;20484;-74
2021/05/07 00:31:18;;;;;;;111.35;52.58;;;5.40;99.90;;;;;;5031995;28;20079;-74
2021/05/07 00:33:44;;;;;;;119.57;51.78;;;5.40;99.90;;;;;;5031435;28;20394;-75
2021/05/07 00:36:10;;;;;;;127.35;54.30;;;5.50;99.90;;;;;;5047574;28;20137;-74
2021/05/07 00:38:37;;;;;;;106.00;50.75;;;5.40;99.90;;;;;;5031083;28;20044;-74
2021/05/07 00:41:03;;;;;;;87.38;45.65;;;5.40;99.90;;;;;;5048473;28;20060;-74
2021/05/07 00:43:29;;;;;;;47.05;25.42;;;5.20;99.90;;;;;;5030466;28;20199;-77
2021/05/07 00:45:56;;;;;;;44.38;23.20;;;4.90;99.90;;;;;;5048216;28;20044;-77
2021/05/07 00:48:23;;;;;;;24.38;14.73;;;4.70;99.90;;;;;;5049445;28;20443;-76
2021/05/07 00:50:49;;;;;;;31.42;16.85;;;4.00;99.90;;;;;;5048561;28;20423;-77
2021/05/07 00:53:18;;;;;;;34.88;17.95;;;3.50;99.90;;;;;;5031936;28;20049;-76
2021/05/07 00:55:46;;;;;;;30.48;15.35;;;3.30;99.90;;;;;;5031558;28;20057;-77
2021/05/07 00:58:15;;;;;;;22.08;11.00;;;3.10;99.90;;;;;;5032833;28;20050;-76
2021/05/07 01:00:42;;;;;;;18.95;9.70;;;2.90;99.90;;;;;;5015366;28;20060;-74
2021/05/07 01:03:09;;;;;;;25.58;11.13;;;2.70;99.90;;;;;;5015465;28;20059;-75
2021/05/07 01:05:36;;;;;;;15.95;9.68;;;2.60;99.90;;;;;;5034243;28;20283;-75
2021/05/07 01:08:05;;;;;;;21.48;10.13;;;2.20;99.90;;;;;;5033084;28;20080;-74
2021/05/07 01:10:34;;;;;;;23.15;12.10;;;2.00;99.90;;;;;;5014908;28;20036;-74
2021/05/07 01:13:02;;;;;;;29.77;13.48;;;1.90;99.90;;;;;;5049226;28;20076;-76
2021/05/07 01:15:42;;;;;;;28.67;14.65;;;1.80;99.90;;;;;;4997318;28;20473;-75
2021/05/07 01:18:10;;;;;;;29.73;14.35;;;1.70;99.90;;;;;;5011556;28;20045;-75
2021/05/07 01:20:37;;;;;;;30.65;16.42;;;1.70;99.90;;;;;;5012019;28;20099;-75
2021/05/07 01:23:07;;;;;;;33.17;16.95;;;1.70;99.90;;;;;;5029699;28;20063;-75
2021/05/07 01:25:36;;;;;;;37.60;16.80;;;1.70;99.90;;;;;;5031279;28;20524;-75
2021/05/07 01:28:06;;;;;;;43.45;18.23;;;1.70;99.90;;;;;;5048922;28;20123;-74
2021/05/07 01:30:35;;;;;;;42.10;17.95;;;1.60;99.90;;;;;;5046559;28;20053;-74
2021/05/07 01:33:02;;;;;;;46.50;18.52;;;1.60;99.90;;;;;;5030176;28;20052;-74
2021/05/07 01:35:34;;;;;;;37.92;17.85;;;1.60;99.90;;;;;;5029892;28;20044;-74
2021/05/07 01:38:03;;;;;;;33.35;14.00;;;1.50;99.90;;;;;;5031146;28;20048;-74
2021/05/07 01:40:41;;;;;;;34.10;14.93;;;1.50;99.90;;;;;;5030814;28;21119;-75
2021/05/07 01:43:08;;;;;;;39.60;16.88;;;1.50;99.90;;;;;;5048055;28;20056;-75
2021/05/07 01:45:40;;;;;;;54.95;19.77;;;1.40;99.90;;;;;;5002200;28;20045;-75
2021/05/07 01:48:14;;;;;;;51.05;20.65;;;1.40;99.90;;;;;;5016470;28;20052;-75
2021/05/07 01:50:46;;;;;;;51.75;19.60;;;1.40;99.90;;;;;;5024996;28;20124;-75
2021/05/07 01:53:13;;;;;;;49.85;19.33;;;1.40;99.90;;;;;;5030548;28;20041;-76
2021/05/07 01:55:42;;;;;;;51.30;19.52;;;1.40;99.90;;;;;;5047170;28;20048;-75
2021/05/07 01:58:12;;;;;;;49.08;20.27;;;1.40;99.90;;;;;;5030478;28;20622;-74
2021/05/07 02:00:43;;;;;;;56.67;22.08;;;1.50;99.90;;;;;;5030985;28;20097;-77
2021/05/07 02:03:12;;;;;;;63.55;23.73;;;1.50;99.90;;;;;;5046764;28;20053;-74
2021/05/07 02:05:46;;;;;;;64.80;25.40;;;1.50;99.90;;;;;;5030235;28;20235;-74
2021/05/07 02:08:12;;;;;;;58.42;23.88;;;1.50;99.90;;;;;;5030929;28;20047;-76
2021/05/07 02:10:40;;;;;;;79.57;27.17;;;1.50;99.90;;;;;;5030186;28;20060;-74
2021/05/07 02:13:09;;;;;;;71.60;26.20;;;1.50;99.90;;;;;;5015017;28;20044;-75
2021/05/07 02:15:38;;;;;;;74.63;27.38;;;1.50;99.90;;;;;;5013383;28;20040;-75
2021/05/07 02:18:08;;;;;;;81.75;28.05;;;1.50;99.90;;;;;;5030473;28;20493;-74
2021/05/07 02:20:39;;;;;;;90.43;28.15;;;1.60;99.90;;;;;;5031027;28;20063;-74
2021/05/07 02:23:08;;;;;;;71.28;27.95;;;1.60;99.90;;;;;;5014514;28;20040;-74
2021/05/07 02:25:34;;;;;;;86.25;28.63;;;1.60;99.90;;;;;;5046680;28;20752;-73
2021/05/07 02:28:01;;;;;;;70.55;26.50;;;1.60;99.90;;;;;;5030367;28;20058;-73
2021/05/07 02:30:31;;;;;;;83.85;28.85;;;1.60;99.90;;;;;;5012611;28;20072;-73
2021/05/07 02:33:01;;;;;;;79.85;29.05;;;1.70;99.90;;;;;;5037088;28;20123;-72
2021/05/07 02:35:28;;;;;;;86.03;30.20;;;1.70;99.90;;;;;;5028356;28;20036;-74
2021/05/07 02:37:55;;;;;;;91.85;31.50;;;1.80;99.90;;;;;;5030941;28;20044;-74
2021/05/07 02:40:21;;;;;;;90.25;32.40;;;1.90;99.90;;;;;;5046450;28;20551;-72
2021/05/07 02:42:50;;;;;;;91.55;30.60;;;1.90;99.90;;;;;;5013515;28;20040;-72
2021/05/07 02:45:17;;;;;;;95.90;32.42;;;1.90;99.90;;;;;;5029473;28;20106;-74
2021/05/07 02:47:44;;;;;;;99.70;34.42;;;2.00;99.90;;;;;;5046922;28;20122;-75
2021/05/07 02:50:12;;;;;;;101.78;35.50;;;2.10;99.90;;;;;;5029239;28;20048;-72
2021/05/07 02:52:41;;;;;;;105.07;34.80;;;2.00;99.90;;;;;;5046515;28;20052;-72
2021/05/07 02:55:09;;;;;;;93.10;33.67;;;2.10;99.90;;;;;;5029448;28;20159;-72
2021/05/07 02:57:37;;;;;;;108.82;37.08;;;2.20;99.90;;;;;;5046773;28;20075;-72
2021/05/07 03:00:05;;;;;;;112.75;36.95;;;2.20;99.90;;;;;;5046526;28;20113;-72
2021/05/07 03:02:33;;;;;;;108.07;37.25;;;2.20;99.90;;;;;;5045731;28;20140;-73
2021/05/07 03:04:59;;;;;;;103.35;37.40;;;2.30;99.90;;;;;;5063636;28;20063;-72
2021/05/07 03:07:25;;;;;;;113.00;38.92;;;2.40;99.90;;;;;;5046236;28;20048;-73
2021/05/07 03:09:52;;;;;;;104.93;39.63;;;2.40;99.90;;;;;;5045219;28;20493;-73
2021/05/07 03:12:18;;;;;;;116.80;42.70;;;2.40;99.90;;;;;;5029083;28;20041;-73
2021/05/07 03:14:45;;;;;;;110.22;40.90;;;2.40;99.90;;;;;;5046384;28;20133;-73
2021/05/07 03:17:12;;;;;;;120.60;41.22;;;2.50;99.90;;;;;;5063458;28;20151;-74
2021/05/07 03:19:38;;;;;;;124.28;41.90;;;2.50;99.90;;;;;;5062812;28;20057;-74
2021/05/07 03:22:04;;;;;;;124.93;44.63;;;2.50;99.90;;;;;;5046295;28;20055;-74
2021/05/07 03:24:31;;;;;;;124.25;41.63;;;2.50;99.90;;;;;;5046348;28;20459;-74
2021/05/07 03:26:57;;;;;;;116.15;43.60;;;2.50;99.90;;;;;;5012300;28;20143;-74
2021/05/07 03:29:23;;;;;;;116.80;41.88;;;2.50;99.90;;;;;;5047110;28;20107;-74
2021/05/07 03:31:50;;;;;;;113.60;41.85;;;2.50;99.90;;;;;;5011097;28;20132;-74
2021/05/07 03:34:16;;;;;;;113.75;42.88;;;2.60;99.90;;;;;;5005342;28;20045;-75
2021/05/07 03:36:43;;;;;;;111.30;41.20;;;2.60;99.90;;;;;;5024614;28;20481;-75
2021/05/07 03:39:10;;;;;;;109.85;41.97;;;2.70;99.90;;;;;;5042419;28;20143;-74
2021/05/07 03:41:37;;;;;;;107.78;40.53;;;2.70;99.90;;;;;;5027651;28;20077;-74
2021/05/07 03:44:03;;;;;;;98.38;40.10;;;2.70;99.90;;;;;;5025937;28;20070;-74
2021/05/07 03:46:30;;;;;;;116.05;42.33;;;2.70;99.90;;;;;;5027246;28;20127;-74
2021/05/07 03:48:56;;;;;;;100.72;39.08;;;2.70;99.90;;;;;;5029094;28;20144;-74
2021/05/07 03:51:23;;;;;;;101.57;39.85;;;2.70;99.90;;;;;;5011603;28;20048;-74
2021/05/07 03:53:49;;;;;;;102.40;40.65;;;2.70;99.90;;;;;;5012818;28;20147;-74
2021/05/07 03:56:15;;;;;;;109.45;42.55;;;2.70;99.90;;;;;;5047417;28;20048;-74
2021/05/07 03:58:42;;;;;;;100.82;41.42;;;2.70;99.90;;;;;;5067454;28;20064;-74
2021/05/07 04:01:09;;;;;;;106.43;41.70;;;2.80;99.90;;;;;;5032006;28;20052;-75
2021/05/07 04:03:36;;;;;;;100.10;40.97;;;2.80;99.90;;;;;;5032125;28;20110;-74
2021/05/07 04:06:02;;;;;;;107.55;43.75;;;2.80;99.90;;;;;;5032512;28;20053;-74
2021/05/07 04:08:34;;;;;;;93.45;39.10;;;2.70;99.90;;;;;;5032822;28;20039;-74
2021/05/07 04:13:59;;;;;;;99.78;43.00;;;2.80;99.90;;;;;;5040237;28;20048;-74
2021/05/07 04:16:25;;;;;;;99.25;44.35;;;2.80;99.90;;;;;;5047706;28;20152;-74
2021/05/07 04:18:56;;;;;;;72.38;34.83;;;2.80;99.90;;;;;;5018397;28;20048;-75
2021/05/07 04:21:25;;;;;;;106.05;45.13;;;2.90;99.90;;;;;;5048866;28;20072;-75
2021/05/07 04:23:51;;;;;;;102.20;46.70;;;2.90;99.90;;;;;;5049510;28;20280;-76
2021/05/07 04:26:19;;;;;;;115.57;48.45;;;2.90;99.90;;;;;;5031148;28;20094;-76
2021/05/07 04:28:46;;;;;;;106.50;48.10;;;3.00;99.90;;;;;;5032782;28;20138;-75
2021/05/07 04:31:12;;;;;;;100.82;44.60;;;3.00;99.90;;;;;;5031514;28;20114;-76
2021/05/07 04:33:39;;;;;;;125.63;54.80;;;3.00;99.90;;;;;;5041479;28;20041;-75
2021/05/07 04:36:06;;;;;;;131.07;57.90;;;3.10;99.90;;;;;;5030979;28;20472;-76
2021/05/07 04:38:32;;;;;;;132.13;55.05;;;3.10;99.90;;;;;;5048115;28;20420;-76
2021/05/07 04:40:59;;;;;;;120.78;51.05;;;3.10;99.90;;;;;;5031863;28;20044;-76
2021/05/07 04:43:25;;;;;;;148.65;62.03;;;3.20;99.90;;;;;;5032406;28;20049;-75
2021/05/07 04:45:52;;;;;;;116.25;50.47;;;3.20;99.90;;;;;;5045051;28;20513;-74
2021/05/07 04:48:18;;;;;;;126.03;49.35;;;3.10;99.90;;;;;;5049000;28;20101;-75
2021/05/07 04:50:45;;;;;;;147.52;58.85;;;3.10;99.90;;;;;;5015945;28;20089;-75
2021/05/07 04:53:11;;;;;;;160.40;62.78;;;3.10;99.90;;;;;;5048304;28;20101;-75
2021/05/07 04:55:38;;;;;;;173.90;65.30;;;3.10;99.90;;;;;;5031194;28;20595;-75
2021/05/07 04:58:09;;;;;;;173.85;60.22;;;3.20;99.90;;;;;;5049308;28;20067;-75
2021/05/07 05:00:35;;;;;;;143.65;56.25;;;3.20;99.90;;;;;;5031508;28;20488;-74
2021/05/07 05:03:01;;;;;;;183.15;66.63;;;3.20;99.90;;;;;;5031807;28;20292;-74
2021/05/07 05:05:28;;;;;;;188.55;66.85;;;3.10;99.90;;;;;;5030840;28;20052;-75
2021/05/07 05:07:57;;;;;;;158.02;60.45;;;3.20;99.90;;;;;;5048204;28;20062;-75
2021/05/07 05:10:24;;;;;;;148.40;60.38;;;3.20;99.90;;;;;;5014220;28;20036;-74
2021/05/07 05:12:50;;;;;;;138.90;57.25;;;3.20;99.90;;;;;;5047786;28;20036;-74
2021/05/07 05:15:17;;;;;;;155.55;61.20;;;3.20;99.90;;;;;;5030501;28;20041;-75
2021/05/07 05:17:43;;;;;;;161.52;61.50;;;3.20;99.90;;;;;;5048032;28;20121;-74
2021/05/07 05:20:10;;;;;;;157.73;61.53;;;3.20;99.90;;;;;;5065721;28;20135;-75
2021/05/07 05:22:37;;;;;;;151.35;60.38;;;3.30;99.90;;;;;;5031344;28;20072;-75
2021/05/07 05:25:05;;;;;;;102.15;46.90;;;3.20;99.90;;;;;;5047324;28;20207;-75
2021/05/07 05:27:32;;;;;;;104.55;46.67;;;3.20;99.90;;;;;;5031913;28;20048;-75
2021/05/07 05:30:00;;;;;;;101.32;46.00;;;3.20;99.90;;;;;;5030233;28;20041;-75
2021/05/07 05:32:26;;;;;;;99.15;45.00;;;3.30;99.90;;;;;;5036224;28;20106;-75
2021/05/07 05:34:54;;;;;;;98.53;42.72;;;3.30;99.90;;;;;;5029539;28;20073;-74
2021/05/07 05:37:21;;;;;;;97.85;42.70;;;3.30;99.90;;;;;;5047402;28;20090;-74
2021/05/07 05:39:47;;;;;;;87.28;40.63;;;3.30;99.90;;;;;;5046919;28;20083;-75
2021/05/07 05:42:31;;;;;;;81.75;37.28;;;3.20;99.90;;;;;;5028784;28;20044;-75
2021/05/07 05:44:57;;;;;;;77.38;39.25;;;3.20;99.90;;;;;;5013231;28;20114;-75
2021/05/07 05:47:23;;;;;;;91.18;41.90;;;3.20;99.90;;;;;;5030674;28;20313;-75
2021/05/07 05:49:56;;;;;;;76.10;37.50;;;3.30;99.90;;;;;;5030901;28;20048;-75
2021/05/07 05:52:22;;;;;;;74.65;39.50;;;3.30;99.90;;;;;;5013947;28;20068;-74
2021/05/07 05:54:50;;;;;;;72.22;37.90;;;3.30;99.90;;;;;;5048615;28;20053;-75
2021/05/07 05:57:16;;;;;;;64.05;34.20;;;3.30;99.90;;;;;;5058471;28;20071;-75
2021/05/07 05:59:42;;;;;;;64.97;33.80;;;3.30;99.90;;;;;;5031151;28;20045;-75
2021/05/07 06:02:09;;;;;;;69.55;34.85;;;3.40;99.90;;;;;;5031582;28;20076;-74
2021/05/07 06:04:35;;;;;;;66.60;36.25;;;3.50;99.90;;;;;;5047021;28;20055;-75
2021/05/07 06:07:02;;;;;;;68.75;35.67;;;3.60;99.90;;;;;;5029681;28;20057;-74
2021/05/07 06:09:28;;;;;;;70.32;36.97;;;3.70;99.90;;;;;;5030525;28;20148;-74
2021/05/07 06:11:55;;;;;;;66.63;34.58;;;3.60;99.90;;;;;;5064281;28;20060;-74
2021/05/07 06:14:21;;;;;;;66.45;36.15;;;3.70;99.90;;;;;;5029546;28;20063;-75
2021/05/07 06:17:04;;;;;;;58.45;32.40;;;3.70;99.90;;;;;;5028443;28;20504;-74
2021/05/07 06:19:31;;;;;;;58.50;33.53;;;3.70;99.90;;;;;;5030225;28;20085;-75
2021/05/07 06:21:57;;;;;;;53.42;30.63;;;3.70;99.90;;;;;;5029622;28;20095;-74
2021/05/07 06:24:24;;;;;;;61.10;32.92;;;3.80;99.90;;;;;;5014302;28;20504;-75
2021/05/07 06:26:50;;;;;;;59.97;33.38;;;3.70;99.90;;;;;;5028158;28;20672;-74
2021/05/07 06:29:17;;;;;;;60.17;33.83;;;3.80;99.90;;;;;;5030732;28;20444;-75
2021/05/07 06:31:43;;;;;;;59.53;34.28;;;3.90;99.90;;;;;;5027109;28;20066;-75
2021/05/07 06:34:09;;;;;;;59.00;31.45;;;3.90;99.90;;;;;;5030834;28;20544;-75
2021/05/07 06:36:36;;;;;;;62.05;32.47;;;3.90;99.90;;;;;;5045827;28;20056;-75
2021/05/07 06:39:02;;;;;;;64.75;35.00;;;3.90;99.90;;;;;;5047411;28;20465;-75
2021/05/07 06:41:29;;;;;;;56.33;32.00;;;4.00;99.90;;;;;;5030087;28;20078;-75
2021/05/07 06:43:55;;;;;;;59.13;31.70;;;4.10;99.90;;;;;;5029677;28;20673;-75
2021/05/07 06:46:21;;;;;;;43.30;25.35;;;4.10;99.90;;;;;;5031947;28;20045;-75
2021/05/07 06:48:48;;;;;;;47.50;27.08;;;4.00;99.90;;;;;;5037538;28;20124;-75
2021/05/07 06:51:15;;;;;;;39.75;24.67;;;4.00;99.90;;;;;;5042332;28;20127;-76
2021/05/07 06:53:42;;;;;;;42.83;25.95;;;4.10;99.90;;;;;;5010600;28;20048;-76
2021/05/07 06:56:11;;;;;;;38.28;24.15;;;4.10;99.90;;;;;;5030202;28;20147;-75
2021/05/07 06:58:46;;;;;;;41.55;24.92;;;4.20;99.90;;;;;;5032919;28;20543;-75
2021/05/07 07:01:13;;;;;;;42.92;25.73;;;4.20;99.90;;;;;;5045319;28;20147;-76
2021/05/07 07:03:40;;;;;;;38.72;23.88;;;4.30;99.90;;;;;;5036925;28;20052;-76
2021/05/07 07:06:06;;;;;;;46.70;25.88;;;4.30;99.90;;;;;;5057020;28;20072;-76
2021/05/07 07:08:33;;;;;;;44.50;27.90;;;4.50;99.90;;;;;;5031188;28;20401;-75
2021/05/07 07:10:59;;;;;;;44.70;26.23;;;4.60;99.90;;;;;;5015011;28;20068;-75
2021/05/07 07:13:27;;;;;;;44.97;28.45;;;4.60;99.90;;;;;;5048419;28;20056;-75
2021/05/07 07:15:53;;;;;;;37.22;23.42;;;4.70;99.90;;;;;;5046600;28;20068;-76
2021/05/07 07:18:21;;;;;;;44.70;26.90;;;4.60;99.90;;;;;;5031565;28;20761;-76
2021/05/07 07:20:48;;;;;;;37.45;23.88;;;4.70;99.90;;;;;;5031332;28;20056;-75
2021/05/07 07:23:16;;;;;;;27.77;19.20;;;4.70;99.90;;;;;;5035968;28;20071;-76
2021/05/07 07:25:43;;;;;;;33.55;22.80;;;4.80;99.90;;;;;;5049404;28;20044;-74
2021/05/07 07:28:11;;;;;;;29.05;17.27;;;4.90;99.90;;;;;;5014104;28;20278;-72
2021/05/07 07:30:37;;;;;;;25.92;19.40;;;5.10;99.90;;;;;;5065152;28;20048;-71
2021/05/07 07:33:04;;;;;;;18.65;16.65;;;5.10;99.90;;;;;;5047435;28;20044;-70
2021/05/07 07:35:30;;;;;;;25.50;16.92;;;5.30;99.90;;;;;;5048839;28;20055;-72
2021/05/07 07:37:56;;;;;;;20.23;16.33;;;5.40;99.90;;;;;;5023281;28;20049;-72
2021/05/07 07:40:23;;;;;;;25.98;18.58;;;5.50;99.90;;;;;;5049821;28;20281;-71
2021/05/07 07:42:49;;;;;;;24.52;17.77;;;5.90;99.90;;;;;;5023000;28;20041;-71
2021/05/07 07:45:15;;;;;;;30.45;21.70;;;6.00;99.90;;;;;;5050986;28;20087;-72
2021/05/07 07:47:42;;;;;;;21.02;15.55;;;6.00;99.90;;;;;;5053001;28;20052;-73
2021/05/07 07:50:09;;;;;;;18.08;14.15;;;6.00;99.90;;;;;;5035060;28;20048;-72
2021/05/07 07:52:38;;;;;;;14.50;13.10;;;6.00;99.90;;;;;;5052664;28;20098;-72
2021/05/07 07:55:06;;;;;;;17.85;14.00;;;5.90;99.90;;;;;;5051548;28;20044;-72
2021/05/07 07:57:32;;;;;;;23.23;17.80;;;5.80;99.90;;;;;;5053537;28;20048;-71
2021/05/07 07:59:59;;;;;;;22.23;17.88;;;5.80;99.90;;;;;;5072022;28;20056;-72
2021/05/07 08:02:26;;;;;;;21.48;17.40;;;5.70;99.90;;;;;;5054682;28;20067;-72
2021/05/07 08:04:53;;;;;;;18.15;14.95;;;5.70;99.90;;;;;;5047770;28;20076;-72
2021/05/07 08:07:21;;;;;;;19.02;16.13;;;5.70;99.90;;;;;;5050093;28;20523;-72
2021/05/07 08:09:49;;;;;;;19.13;14.93;;;5.70;99.90;;;;;;5037595;28;20041;-70
2021/05/07 08:12:16;;;;;;;17.27;15.43;;;5.70;99.90;;;;;;5041948;28;20578;-71
2021/05/07 08:14:42;;;;;;;15.77;13.52;;;5.60;99.90;;;;;;5054908;28;20114;-73
2021/05/07 08:17:09;;;;;;;15.00;13.07;;;5.50;99.90;;;;;;5034688;28;20082;-74
2021/05/07 08:19:41;;;;;;;19.13;15.45;;;5.90;99.90;;;;;;5034383;28;20048;-75
2021/05/07 08:22:08;;;;;;;16.15;13.00;;;6.00;99.90;;;;;;5051016;28;20734;-75
2021/05/07 08:24:34;;;;;;;17.35;14.82;;;5.90;99.90;;;;;;5051090;28;20052;-75
2021/05/07 08:27:01;;;;;;;17.25;15.40;;;5.40;99.90;;;;;;5050571;28;20040;-75
2021/05/07 08:29:27;;;;;;;21.95;17.98;;;5.20;99.90;;;;;;5069385;28;20064;-76
2021/05/07 08:31:55;;;;;;;22.55;16.40;;;5.20;99.90;;;;;;5050564;28;20052;-76
2021/05/07 08:34:21;;;;;;;24.45;15.40;;;5.30;99.90;;;;;;5035073;28;20459;-76
2021/05/07 08:36:51;;;;;;;22.70;16.27;;;5.30;99.90;;;;;;5052535;28;20059;-76
2021/05/07 08:39:19;;;;;;;18.63;14.18;;;5.60;99.90;;;;;;5071999;28;20080;-77
2021/05/07 08:41:48;;;;;;;16.38;14.60;;;5.80;99.90;;;;;;5034954;28;20116;-76
2021/05/07 08:44:20;;;;;;;17.80;14.85;;;6.30;99.90;;;;;;5049844;28;20121;-76
2021/05/07 08:46:47;;;;;;;23.05;16.05;;;6.40;99.90;;;;;;5050777;28;20155;-75
2021/05/07 08:49:18;;;;;;;16.73;13.98;;;6.50;99.90;;;;;;5034710;28;20272;-76
2021/05/07 08:51:44;;;;;;;16.92;15.25;;;6.50;99.90;;;;;;5017541;28;20055;-76
2021/05/07 08:54:11;;;;;;;19.15;16.70;;;6.30;99.90;;;;;;5034767;28;20437;-76
2021/05/07 08:56:38;;;;;;;16.77;14.73;;;6.20;99.90;;;;;;5048872;28;20150;-76
2021/05/07 08:59:05;;;;;;;18.80;14.85;;;6.10;99.90;;;;;;5034579;28;20058;-76
2021/05/07 09:01:58;;;;;;;20.30;14.73;;;5.80;99.90;;;;;;5049431;28;20143;-76
2021/05/07 09:04:26;;;;;;;14.77;13.13;;;5.60;99.90;;;;;;5062352;28;20101;-76
2021/05/07 09:06:54;;;;;;;21.08;13.30;;;5.10;99.90;;;;;;5048521;28;20071;-76
2021/05/07 09:09:28;;;;;;;15.88;13.23;;;4.40;99.90;;;;;;5030294;28;20188;-75
2021/05/07 09:11:59;;;;;;;19.88;14.07;;;3.90;99.90;;;;;;5050829;28;20048;-74
2021/05/07 09:14:27;;;;;;;15.60;12.75;;;3.50;99.90;;;;;;5050575;28;20037;-75
2021/05/07 09:16:54;;;;;;;18.25;13.00;;;3.30;99.90;;;;;;5068786;28;20083;-73
2021/05/07 09:19:23;;;;;;;23.90;16.25;;;3.30;99.90;;;;;;5066831;28;20052;-73
2021/05/07 09:21:50;;;;;;;23.73;15.13;;;3.30;99.90;;;;;;5055909;28;20072;-74
2021/05/07 09:24:18;;;;;;;24.77;15.90;;;3.30;99.90;;;;;;5030759;28;20053;-74
2021/05/07 09:26:49;;;;;;;27.27;17.48;;;3.40;99.90;;;;;;5028597;28;20044;-75
2021/05/07 09:29:21;;;;;;;24.48;16.55;;;3.60;99.90;;;;;;5049310;28;20040;-75
2021/05/07 09:31:50;;;;;;;26.98;17.73;;;3.80;99.90;;;;;;5029907;28;20063;-74
2021/05/07 09:34:22;;;;;;;26.33;16.70;;;4.20;99.90;;;;;;5019458;28;20060;-76
2021/05/07 09:36:50;;;;;;;25.65;16.92;;;4.60;99.90;;;;;;5032281;28;20049;-76
2021/05/07 09:39:25;;;;;;;24.83;17.63;;;5.00;99.90;;;;;;5056043;28;20056;-75
2021/05/07 09:41:53;;;;;;;26.60;16.95;;;5.30;99.90;;;;;;5040353;28;20097;-75
2021/05/07 09:44:25;;;;;;;26.23;16.75;;;5.40;99.90;;;;;;5035882;28;20051;-76
2021/05/07 09:46:53;;;;;;;22.20;14.50;;;5.40;99.90;;;;;;5040125;28;20105;-76
2021/05/07 09:49:30;;;;;;;26.60;19.80;;;5.60;99.90;;;;;;5000527;28;20162;-74
2021/05/07 09:51:57;;;;;;;54.60;19.35;;;6.20;99.90;;;;;;5013045;28;20196;-75
2021/05/07 09:54:25;;;;;;;54.55;20.88;;;6.70;99.90;;;;;;5022337;28;20040;-75
2021/05/07 09:56:54;;;;;;;31.08;16.02;;;7.30;99.90;;;;;;5046354;28;20044;-75
2021/05/07 09:59:22;;;;;;;29.70;16.08;;;7.10;99.90;;;;;;5036695;28;20053;-75
2021/05/07 10:01:49;;;;;;;17.73;13.57;;;7.20;99.90;;;;;;4991542;28;20041;-75
2021/05/07 10:04:16;;;;;;;14.73;12.45;;;7.50;99.90;;;;;;5008978;28;20077;-74
2021/05/07 10:06:43;;;;;;;18.55;15.40;;;7.60;99.90;;;;;;4985105;28;20045;-75
2021/05/07 10:09:11;;;;;;;23.20;16.13;;;7.30;99.90;;;;;;5007367;28;20313;-75
2021/05/07 10:11:43;;;;;;;21.73;17.85;;;7.20;99.90;;;;;;5000550;28;20049;-75
2021/05/07 10:14:15;;;;;;;20.63;14.27;;;7.00;99.90;;;;;;4994440;28;20509;-75
2021/05/07 10:16:41;;;;;;;18.90;14.43;;;7.40;99.90;;;;;;5018567;28;20474;-75
2021/05/07 10:19:13;;;;;;;17.90;16.00;;;7.80;99.90;;;;;;4990937;28;20053;-74
2021/05/07 10:21:46;;;;;;;20.48;15.88;;;7.80;99.90;;;;;;5002511;28;20131;-75
2021/05/07 10:24:18;;;;;;;16.35;14.68;;;7.60;99.90;;;;;;5027003;28;20431;-75
2021/05/07 10:26:53;;;;;;;12.60;11.35;;;7.40;99.90;;;;;;5009141;28;20074;-75
2021/05/07 10:29:25;;;;;;;15.60;13.00;;;7.20;99.90;;;;;;5044571;28;20398;-73
2021/05/07 10:31:57;;;;;;;15.02;13.57;;;7.50;99.90;;;;;;4991972;28;20458;-75
2021/05/07 10:34:26;;;;;;;14.48;13.13;;;7.60;99.90;;;;;;5007753;28;20045;-75
2021/05/07 10:37:02;;;;;;;19.42;14.50;;;7.60;99.90;;;;;;4998684;28;20568;-73
2021/05/07 10:39:32;;;;;;;16.02;13.85;;;7.50;99.90;;;;;;5007303;28;20115;-75
2021/05/07 10:42:00;;;;;;;18.33;14.43;;;7.30;99.90;;;;;;5020905;28;20055;-73
2021/05/07 10:44:28;;;;;;;13.80;12.48;;;7.00;99.90;;;;;;5027770;28;20065;-74
2021/05/07 10:47:06;;;;;;;13.27;11.85;;;6.70;99.90;;;;;;5005182;28;20041;-74
2021/05/07 10:49:33;;;;;;;13.32;12.13;;;6.30;99.90;;;;;;5005691;28;20072;-77
2021/05/07 10:52:00;;;;;;;13.15;11.75;;;5.90;99.90;;;;;;5011433;28;20040;-77
2021/05/07 10:54:49;;;;;;;12.23;10.65;;;5.70;99.90;;;;;;4996449;28;20135;-75
2021/05/07 10:57:33;;;;;;;14.43;11.25;;;5.30;99.90;;;;;;5008467;28;20047;-76
2021/05/07 11:00:12;;;;;;;10.75;9.35;;;5.30;99.90;;;;;;5047663;28;20095;-76
2021/05/07 11:02:45;;;;;;;10.52;9.48;;;5.40;99.90;;;;;;5045882;28;20158;-75
2021/05/07 11:05:13;;;;;;;10.98;9.20;;;5.70;99.90;;;;;;5028506;28;20048;-75
2021/05/07 11:07:51;;;;;;;13.07;10.60;;;6.30;99.90;;;;;;5028124;28;20510;-75
2021/05/07 11:10:26;;;;;;;10.50;9.23;;;7.10;99.90;;;;;;5023151;28;20056;-76
2021/05/07 11:12:52;;;;;;;9.45;8.65;;;7.50;99.90;;;;;;5009706;28;20064;-75
2021/05/07 11:15:19;;;;;;;15.25;9.85;;;8.00;99.90;;;;;;4992021;28;20102;-75
2021/05/07 11:17:45;;;;;;;10.32;9.27;;;8.20;99.90;;;;;;5009638;28;20321;-75
2021/05/07 11:20:12;;;;;;;10.57;9.50;;;8.60;99.90;;;;;;4992288;28;20493;-74
2021/05/07 11:22:41;;;;;;;10.30;9.60;;;8.30;99.90;;;;;;5025049;28;20118;-74
2021/05/07 11:25:08;;;;;;;10.93;10.13;;;8.70;99.90;;;;;;4991410;28;20064;-74
2021/05/07 11:27:37;;;;;;;11.40;10.30;;;8.70;99.90;;;;;;5009384;28;20464;-75
2021/05/07 11:30:04;;;;;;;11.07;10.30;;;8.70;99.90;;;;;;5025307;28;20084;-74
2021/05/07 11:32:32;;;;;;;10.23;9.63;;;8.60;99.90;;;;;;5009751;28;20045;-74
2021/05/07 11:35:10;;;;;;;9.27;8.68;;;8.60;99.90;;;;;;5022973;28;20037;-74
2021/05/07 11:37:39;;;;;;;8.43;7.78;;;8.80;99.90;;;;;;5028703;28;20488;-73
2021/05/07 11:40:14;;;;;;;8.70;8.05;;;9.00;99.90;;;;;;5063896;28;20052;-74
2021/05/07 11:42:42;;;;;;;8.82;8.15;;;9.10;99.90;;;;;;5044754;28;20480;-73
2021/05/07 11:45:10;;;;;;;10.43;9.38;;;9.20;99.90;;;;;;5045671;28;20041;-74
2021/05/07 11:47:39;;;;;;;8.90;8.18;;;8.90;99.90;;;;;;5026429;28;20491;-73
2021/05/07 11:50:07;;;;;;;9.02;8.35;;;8.50;99.90;;;;;;5041796;28;20079;-73
2021/05/07 11:52:39;;;;;;;10.88;10.07;;;7.90;99.90;;;;;;5025020;28;20499;-74
2021/05/07 11:55:08;;;;;;;10.32;9.52;;;7.10;99.90;;;;;;5029887;28;20452;-75
2021/05/07 11:57:35;;;;;;;11.10;10.00;;;6.00;99.90;;;;;;5030627;28;20102;-76
2021/05/07 12:00:04;;;;;;;9.48;8.57;;;5.80;99.90;;;;;;5048251;28;20076;-76
2021/05/07 12:02:32;;;;;;;11.40;9.02;;;5.60;99.90;;;;;;5048583;28;20116;-75
2021/05/07 12:05:03;;;;;;;9.52;6.95;;;5.50;99.90;;;;;;5030920;28;20474;-74
2021/05/07 12:07:35;;;;;;;7.75;6.55;;;5.70;99.90;;;;;;5033775;28;20506;-74
2021/05/07 12:10:03;;;;;;;11.45;8.25;;;5.60;99.90;;;;;;5000181;28;20135;-75
2021/05/07 12:12:41;;;;;;;8.20;7.40;;;5.90;99.90;;;;;;5027311;28;20131;-75
2021/05/07 12:15:12;;;;;;;10.00;8.50;;;6.30;99.90;;;;;;5044179;28;20056;-75
2021/05/07 12:17:47;;;;;;;11.00;9.38;;;6.70;99.90;;;;;;5032826;28;20056;-75
2021/05/07 12:20:16;;;;;;;11.10;7.75;;;7.30;99.90;;;;;;5007306;28;20287;-75
2021/05/07 12:22:43;;;;;;;12.65;10.23;;;7.50;99.90;;;;;;5013587;28;20059;-76
2021/05/07 12:25:17;;;;;;;14.00;10.07;;;7.90;99.90;;;;;;5011316;28;20230;-75
2021/05/07 12:27:50;;;;;;;13.88;10.35;;;8.20;99.90;;;;;;5026564;28;20081;-75
2021/05/07 12:30:29;;;;;;;16.10;10.43;;;8.50;99.90;;;;;;5026242;28;20136;-75
2021/05/07 12:32:56;;;;;;;10.52;9.45;;;8.80;99.90;;;;;;5014804;28;20507;-74
2021/05/07 12:35:40;;;;;;;10.30;9.43;;;9.20;99.90;;;;;;5000147;28;20240;-75
2021/05/07 12:38:13;;;;;;;12.75;11.73;;;9.30;99.90;;;;;;5014497;28;20709;-75
2021/05/07 12:40:39;;;;;;;12.38;11.30;;;9.40;99.90;;;;;;5030191;28;20150;-74
2021/05/07 12:43:07;;;;;;;10.50;9.50;;;9.30;99.90;;;;;;5029516;28;20033;-76
2021/05/07 12:45:33;;;;;;;12.52;11.60;;;9.30;99.90;;;;;;5020518;28;20447;-74